KCKB

North Central West Virginia Airport

Clarksburg, West Virginia, USA
METAR KCKB 201453Z 22013G20KT 10SM CLR 22/12 A3029 RMK AO2 SLP244 T02170117 51010
Observed Flight Rules
Feb-20 @ 14:53 UTC (3 hours ago) Visual Flight Rules
Wind Visibility Clouds
220° at 13 knots
 Gusting to 20 knots
10 miles
  • Clear skies
Temperatures Readings
Current 22°C / 72°F
Dewpoint 12°C / 54°F
Humidity 53%
Altimeter 30.29" Hg
Pressure 1024.4 hPa
Elevation 360
METAR KCKB 201453Z 22013G20KT 10SM CLR 22/12 A3029 RMK AO2 SLP244 T02170117 51010
Observed Flight Rules
Feb-20 @ 14:53 UTC
(3 hours ago)
VFR
Wind Visibility
220° at 13 knots
 Gusting to 20 knots
10 miles
Clouds
  • Clear skies
Temperature Dewpoint
22°C / 72°F 12°C / 54°F
Humidity Altimeter Pressure
53% 30.29" Hg 1024.4 hPa